sensor_id;sensor_type;location;lat;lon;timestamp;pressure;altitude;pressure_sealevel;temperature;humidity
7480;BME280;3781;42.272;22.658;2023-02-19T00:00:57;94997.88;;;4.59;77.71
7480;BME280;3781;42.272;22.658;2023-02-19T00:03:25;94991.22;;;4.56;79.05
7480;BME280;3781;42.272;22.658;2023-02-19T00:05:52;94978.72;;;4.65;79.35
7480;BME280;3781;42.272;22.658;2023-02-19T00:08:19;94976.47;;;4.44;80.68
7480;BME280;3781;42.272;22.658;2023-02-19T00:10:47;94962.63;;;4.17;82.47
7480;BME280;3781;42.272;22.658;2023-02-19T00:13:13;94978.72;;;4.65;81.73
7480;BME280;3781;42.272;22.658;2023-02-19T00:15:40;94967.44;;;4.95;79.51
7480;BME280;3781;42.272;22.658;2023-02-19T00:18:07;94967.34;;;4.97;79.22
7480;BME280;3781;42.272;22.658;2023-02-19T00:20:33;94974.88;;;4.86;78.62
7480;BME280;3781;42.272;22.658;2023-02-19T00:23:00;94955.28;;;4.69;79.21
7480;BME280;3781;42.272;22.658;2023-02-19T00:25:27;94958.72;;;4.40;80.70
7480;BME280;3781;42.272;22.658;2023-02-19T00:27:55;94937.31;;;4.39;81.05
7480;BME280;3781;42.272;22.658;2023-02-19T00:30:22;94957.56;;;4.45;83.20
7480;BME280;3781;42.272;22.658;2023-02-19T00:32:49;94956.00;;;4.57;83.39
7480;BME280;3781;42.272;22.658;2023-02-19T00:35:16;94960.69;;;4.50;82.92
7480;BME280;3781;42.272;22.658;2023-02-19T00:37:43;94938.94;;;4.26;83.54
7480;BME280;3781;42.272;22.658;2023-02-19T00:40:10;94943.16;;;4.13;86.17
7480;BME280;3781;42.272;22.658;2023-02-19T00:42:36;94958.19;;;4.05;86.15
7480;BME280;3781;42.272;22.658;2023-02-19T00:45:05;94947.78;;;3.77;89.02
7480;BME280;3781;42.272;22.658;2023-02-19T00:47:32;94945.69;;;3.54;92.02
7480;BME280;3781;42.272;22.658;2023-02-19T00:49:59;94955.63;;;3.60;92.47
7480;BME280;3781;42.272;22.658;2023-02-19T00:52:25;94952.66;;;3.52;94.37
7480;BME280;3781;42.272;22.658;2023-02-19T00:54:52;94946.50;;;3.23;95.75
7480;BME280;3781;42.272;22.658;2023-02-19T00:57:19;94933.84;;;3.36;95.96
7480;BME280;3781;42.272;22.658;2023-02-19T00:59:45;94937.00;;;3.41;97.89
7480;BME280;3781;42.272;22.658;2023-02-19T01:02:13;94931.53;;;3.31;98.74
7480;BME280;3781;42.272;22.658;2023-02-19T01:04:40;94936.59;;;3.33;97.27
7480;BME280;3781;42.272;22.658;2023-02-19T01:07:07;94931.75;;;3.27;99.01
7480;BME280;3781;42.272;22.658;2023-02-19T01:09:33;94927.72;;;3.23;100.00
7480;BME280;3781;42.272;22.658;2023-02-19T01:12:00;94935.66;;;3.49;100.00
7480;BME280;3781;42.272;22.658;2023-02-19T01:14:27;94934.81;;;3.49;98.64
7480;BME280;3781;42.272;22.658;2023-02-19T01:16:53;94943.13;;;3.54;97.89
7480;BME280;3781;42.272;22.658;2023-02-19T01:19:22;94955.31;;;3.35;100.00
7480;BME280;3781;42.272;22.658;2023-02-19T01:21:48;94960.09;;;3.25;100.00
7480;BME280;3781;42.272;22.658;2023-02-19T01:24:15;94966.81;;;3.28;100.00
7480;BME280;3781;42.272;22.658;2023-02-19T01:26:42;94958.75;;;3.34;100.00
7480;BME280;3781;42.272;22.658;2023-02-19T01:29:09;94966.56;;;3.48;100.00
7480;BME280;3781;42.272;22.658;2023-02-19T01:31:36;94957.78;;;3.52;100.00
7480;BME280;3781;42.272;22.658;2023-02-19T01:34:05;94964.06;;;3.62;100.00
7480;BME280;3781;42.272;22.658;2023-02-19T01:36:33;94975.47;;;3.72;99.74
7480;BME280;3781;42.272;22.658;2023-02-19T01:39:03;94948.81;;;3.59;99.30
7480;BME280;3781;42.272;22.658;2023-02-19T01:41:34;94961.88;;;3.70;98.09
7480;BME280;3781;42.272;22.658;2023-02-19T01:44:02;94945.81;;;3.82;96.57
7480;BME280;3781;42.272;22.658;2023-02-19T01:46:33;94954.53;;;3.64;94.86
7480;BME280;3781;42.272;22.658;2023-02-19T01:49:03;94947.81;;;3.46;98.36
7480;BME280;3781;42.272;22.658;2023-02-19T01:51:34;94937.56;;;3.46;100.00
7480;BME280;3781;42.272;22.658;2023-02-19T01:54:04;94939.50;;;3.72;99.74
7480;BME280;3781;42.272;22.658;2023-02-19T01:56:34;94951.56;;;3.71;98.88
7480;BME280;3781;42.272;22.658;2023-02-19T01:59:04;94946.38;;;3.87;98.04
7480;BME280;3781;42.272;22.658;2023-02-19T02:01:31;94927.69;;;3.99;95.61
7480;BME280;3781;42.272;22.658;2023-02-19T02:03:58;94953.13;;;4.33;93.00
7480;BME280;3781;42.272;22.658;2023-02-19T02:06:29;94920.44;;;4.35;90.46
7480;BME280;3781;42.272;22.658;2023-02-19T02:08:58;94931.66;;;4.48;89.15
7480;BME280;3781;42.272;22.658;2023-02-19T02:11:47;94955.16;;;4.28;92.03
7480;BME280;3781;42.272;22.658;2023-02-19T02:14:14;94950.81;;;4.29;92.15
7480;BME280;3781;42.272;22.658;2023-02-19T02:16:48;94953.38;;;4.29;92.46
7480;BME280;3781;42.272;22.658;2023-02-19T02:19:29;94961.56;;;4.35;91.73
7480;BME280;3781;42.272;22.658;2023-02-19T02:22:06;94953.06;;;4.35;91.49
7480;BME280;3781;42.272;22.658;2023-02-19T02:25:11;94953.16;;;3.88;93.76
7480;BME280;3781;42.272;22.658;2023-02-19T02:27:52;94944.00;;;3.37;96.89
7480;BME280;3781;42.272;22.658;2023-02-19T02:30:26;94953.97;;;3.12;100.00
7480;BME280;3781;42.272;22.658;2023-02-19T02:33:00;94951.63;;;3.08;100.00
7480;BME280;3781;42.272;22.658;2023-02-19T02:35:33;94952.50;;;2.75;100.00
7480;BME280;3781;42.272;22.658;2023-02-19T02:38:06;94941.31;;;2.76;100.00
7480;BME280;3781;42.272;22.658;2023-02-19T02:40:34;94946.09;;;2.99;100.00
7480;BME280;3781;42.272;22.658;2023-02-19T02:43:01;94951.31;;;3.14;100.00
7480;BME280;3781;42.272;22.658;2023-02-19T02:45:31;94947.63;;;2.86;100.00
7480;BME280;3781;42.272;22.658;2023-02-19T02:48:05;94954.03;;;2.62;100.00
7480;BME280;3781;42.272;22.658;2023-02-19T02:50:36;94953.72;;;2.18;100.00
7480;BME280;3781;42.272;22.658;2023-02-19T02:53:07;94957.09;;;2.36;100.00
7480;BME280;3781;42.272;22.658;2023-02-19T02:55:53;94974.09;;;2.37;100.00
7480;BME280;3781;42.272;22.658;2023-02-19T02:58:22;94974.28;;;2.34;100.00
7480;BME280;3781;42.272;22.658;2023-02-19T03:00:56;94968.59;;;2.45;100.00
7480;BME280;3781;42.272;22.658;2023-02-19T03:03:44;94967.28;;;2.70;100.00
7480;BME280;3781;42.272;22.658;2023-02-19T03:06:15;94962.75;;;3.24;100.00
7480;BME280;3781;42.272;22.658;2023-02-19T03:08:46;94964.56;;;3.22;100.00
7480;BME280;3781;42.272;22.658;2023-02-19T03:11:14;94977.81;;;3.30;100.00
7480;BME280;3781;42.272;22.658;2023-02-19T03:14:03;94968.59;;;3.10;100.00
7480;BME280;3781;42.272;22.658;2023-02-19T03:16:50;94976.75;;;2.85;100.00
7480;BME280;3781;42.272;22.658;2023-02-19T03:19:42;94981.59;;;2.74;100.00
7480;BME280;3781;42.272;22.658;2023-02-19T03:22:13;94987.50;;;2.59;100.00
7480;BME280;3781;42.272;22.658;2023-02-19T03:24:44;94981.63;;;2.57;100.00
7480;BME280;3781;42.272;22.658;2023-02-19T03:27:33;94985.41;;;3.16;100.00
7480;BME280;3781;42.272;22.658;2023-02-19T03:30:04;94979.22;;;3.51;100.00
7480;BME280;3781;42.272;22.658;2023-02-19T03:32:37;94991.16;;;3.67;100.00
7480;BME280;3781;42.272;22.658;2023-02-19T03:35:08;94998.69;;;3.55;100.00
7480;BME280;3781;42.272;22.658;2023-02-19T03:37:40;94996.34;;;3.19;100.00
7480;BME280;3781;42.272;22.658;2023-02-19T03:40:09;94986.97;;;2.70;100.00
7480;BME280;3781;42.272;22.658;2023-02-19T03:42:42;95003.63;;;2.61;100.00
7480;BME280;3781;42.272;22.658;2023-02-19T03:45:19;95003.34;;;2.67;100.00
7480;BME280;3781;42.272;22.658;2023-02-19T03:47:52;95017.81;;;2.68;100.00
7480;BME280;3781;42.272;22.658;2023-02-19T03:50:25;95009.09;;;2.55;100.00
7480;BME280;3781;42.272;22.658;2023-02-19T03:52:58;94991.25;;;2.19;100.00
7480;BME280;3781;42.272;22.658;2023-02-19T03:55:31;95011.34;;;2.10;100.00
7480;BME280;3781;42.272;22.658;2023-02-19T03:58:04;95018.81;;;2.14;100.00
7480;BME280;3781;42.272;22.658;2023-02-19T04:00:37;95025.56;;;1.98;100.00
7480;BME280;3781;42.272;22.658;2023-02-19T04:03:14;95028.75;;;2.20;100.00
7480;BME280;3781;42.272;22.658;2023-02-19T04:05:47;95042.22;;;2.07;100.00
7480;BME280;3781;42.272;22.658;2023-02-19T04:08:18;95035.47;;;2.23;100.00
7480;BME280;3781;42.272;22.658;2023-02-19T04:10:46;95031.09;;;2.25;100.00
7480;BME280;3781;42.272;22.658;2023-02-19T04:13:18;95016.16;;;2.16;100.00
7480;BME280;3781;42.272;22.658;2023-02-19T04:15:46;95021.81;;;2.22;100.00
7480;BME280;3781;42.272;22.658;2023-02-19T04:18:17;95031.00;;;2.09;100.00
7480;BME280;3781;42.272;22.658;2023-02-19T04:20:47;95035.47;;;2.23;100.00
7480;BME280;3781;42.272;22.658;2023-02-19T04:23:16;95032.44;;;1.98;100.00
7480;BME280;3781;42.272;22.658;2023-02-19T04:25:48;95033.03;;;1.67;100.00
7480;BME280;3781;42.272;22.658;2023-02-19T04:28:17;95035.16;;;2.12;100.00
7480;BME280;3781;42.272;22.658;2023-02-19T04:30:44;95031.41;;;2.19;100.00
7480;BME280;3781;42.272;22.658;2023-02-19T04:33:11;95038.03;;;2.06;100.00
7480;BME280;3781;42.272;22.658;2023-02-19T04:35:39;95044.03;;;2.05;100.00
7480;BME280;3781;42.272;22.658;2023-02-19T04:38:06;95040.59;;;2.06;100.00
7480;BME280;3781;42.272;22.658;2023-02-19T04:40:33;95035.78;;;2.17;100.00
7480;BME280;3781;42.272;22.658;2023-02-19T04:42:59;95027.03;;;2.38;100.00
7480;BME280;3781;42.272;22.658;2023-02-19T04:45:26;95032.00;;;2.75;100.00
7480;BME280;3781;42.272;22.658;2023-02-19T04:47:53;95030.50;;;2.71;100.00
7480;BME280;3781;42.272;22.658;2023-02-19T04:50:19;95031.09;;;2.59;100.00
7480;BME280;3781;42.272;22.658;2023-02-19T04:52:48;95037.72;;;2.29;100.00
7480;BME280;3781;42.272;22.658;2023-02-19T04:55:15;95031.53;;;2.16;100.00
7480;BME280;3781;42.272;22.658;2023-02-19T04:57:42;95045.84;;;2.03;100.00
7480;BME280;3781;42.272;22.658;2023-02-19T05:00:10;95041.44;;;1.88;100.00
7480;BME280;3781;42.272;22.658;2023-02-19T05:02:37;95046.72;;;1.66;100.00
7480;BME280;3781;42.272;22.658;2023-02-19T05:05:04;95046.03;;;1.81;100.00
7480;BME280;3781;42.272;22.658;2023-02-19T05:07:31;95038.09;;;2.04;100.00
7480;BME280;3781;42.272;22.658;2023-02-19T05:09:59;95037.19;;;2.22;100.00
7480;BME280;3781;42.272;22.658;2023-02-19T05:12:25;95035.34;;;2.43;100.00
7480;BME280;3781;42.272;22.658;2023-02-19T05:14:52;95032.03;;;2.41;100.00
7480;BME280;3781;42.272;22.658;2023-02-19T05:17:19;95037.59;;;2.32;100.00
7480;BME280;3781;42.272;22.658;2023-02-19T05:19:46;95038.69;;;2.26;100.00
7480;BME280;3781;42.272;22.658;2023-02-19T05:22:12;95045.13;;;2.35;100.00
7480;BME280;3781;42.272;22.658;2023-02-19T05:24:39;95048.16;;;2.26;100.00
7480;BME280;3781;42.272;22.658;2023-02-19T05:27:07;95037.09;;;2.07;100.00
7480;BME280;3781;42.272;22.658;2023-02-19T05:29:34;95027.44;;;1.95;100.00
7480;BME280;3781;42.272;22.658;2023-02-19T05:32:00;95046.03;;;2.17;100.00
7480;BME280;3781;42.272;22.658;2023-02-19T05:34:27;95021.81;;;2.05;100.00
7480;BME280;3781;42.272;22.658;2023-02-19T05:36:54;95052.22;;;2.30;100.00
7480;BME280;3781;42.272;22.658;2023-02-19T05:39:20;95052.22;;;2.30;100.00
7480;BME280;3781;42.272;22.658;2023-02-19T05:41:47;95027.59;;;2.09;100.00
7480;BME280;3781;42.272;22.658;2023-02-19T05:44:15;95058.22;;;2.29;100.00
7480;BME280;3781;42.272;22.658;2023-02-19T05:46:42;95060.63;;;2.15;100.00
7480;BME280;3781;42.272;22.658;2023-02-19T05:49:08;95051.50;;;2.09;100.00
7480;BME280;3781;42.272;22.658;2023-02-19T05:51:35;95068.66;;;2.26;100.00
7480;BME280;3781;42.272;22.658;2023-02-19T05:54:02;95070.00;;;2.33;100.00
7480;BME280;3781;42.272;22.658;2023-02-19T05:56:31;95048.50;;;2.18;100.00
7480;BME280;3781;42.272;22.658;2023-02-19T05:58:59;95072.19;;;2.75;100.00
7480;BME280;3781;42.272;22.658;2023-02-19T06:01:29;95076.78;;;2.68;100.00
7480;BME280;3781;42.272;22.658;2023-02-19T06:03:56;95076.53;;;2.90;100.00
7480;BME280;3781;42.272;22.658;2023-02-19T06:06:24;95076.88;;;2.84;100.00
7480;BME280;3781;42.272;22.658;2023-02-19T06:08:51;95059.28;;;2.76;100.00
7480;BME280;3781;42.272;22.658;2023-02-19T06:11:18;95091.72;;;2.94;100.00
7480;BME280;3781;42.272;22.658;2023-02-19T06:13:45;95086.72;;;3.09;100.00
7480;BME280;3781;42.272;22.658;2023-02-19T06:16:13;95093.81;;;3.03;100.00
7480;BME280;3781;42.272;22.658;2023-02-19T06:18:43;95107.50;;;3.37;100.00
7480;BME280;3781;42.272;22.658;2023-02-19T06:21:10;95099.66;;;3.55;100.00
7480;BME280;3781;42.272;22.658;2023-02-19T06:23:37;95106.09;;;3.95;100.00
7480;BME280;3781;42.272;22.658;2023-02-19T06:26:08;95105.72;;;4.48;100.00
7480;BME280;3781;42.272;22.658;2023-02-19T06:28:36;95101.34;;;4.94;95.30
7480;BME280;3781;42.272;22.658;2023-02-19T06:31:03;95105.06;;;5.04;90.55
7480;BME280;3781;42.272;22.658;2023-02-19T06:33:30;95096.53;;;6.29;84.27
7480;BME280;3781;42.272;22.658;2023-02-19T06:35:59;95096.06;;;7.27;77.55
7480;BME280;3781;42.272;22.658;2023-02-19T06:38:27;95090.56;;;8.31;72.62
7480;BME280;3781;42.272;22.658;2023-02-19T06:40:53;95069.34;;;8.62;65.72
7480;BME280;3781;42.272;22.658;2023-02-19T06:43:20;95106.94;;;9.37;63.82
7480;BME280;3781;42.272;22.658;2023-02-19T06:45:47;95101.66;;;9.83;61.49
7480;BME280;3781;42.272;22.658;2023-02-19T06:48:14;95108.47;;;9.51;60.92
7480;BME280;3781;42.272;22.658;2023-02-19T06:50:40;95094.47;;;8.49;62.59
7480;BME280;3781;42.272;22.658;2023-02-19T06:53:08;95104.59;;;8.52;63.00
7480;BME280;3781;42.272;22.658;2023-02-19T06:55:36;95115.78;;;8.04;64.15
7480;BME280;3781;42.272;22.658;2023-02-19T06:58:05;95107.16;;;8.16;64.09
7480;BME280;3781;42.272;22.658;2023-02-19T07:00:33;95107.41;;;7.88;65.24
7480;BME280;3781;42.272;22.658;2023-02-19T07:03:00;95113.97;;;8.29;64.64
7480;BME280;3781;42.272;22.658;2023-02-19T07:05:26;95116.88;;;8.25;63.26
7480;BME280;3781;42.272;22.658;2023-02-19T07:07:53;95119.03;;;8.67;62.22
7480;BME280;3781;42.272;22.658;2023-02-19T07:10:21;95118.81;;;9.40;59.86
7480;BME280;3781;42.272;22.658;2023-02-19T07:12:48;95119.09;;;9.59;58.23
7480;BME280;3781;42.272;22.658;2023-02-19T07:15:14;95107.91;;;10.25;55.76
7480;BME280;3781;42.272;22.658;2023-02-19T07:17:41;95092.69;;;10.20;54.94
7480;BME280;3781;42.272;22.658;2023-02-19T07:20:08;95116.22;;;10.61;54.54
7480;BME280;3781;42.272;22.658;2023-02-19T07:22:35;95123.00;;;11.16;51.80
7480;BME280;3781;42.272;22.658;2023-02-19T07:25:01;95102.44;;;11.45;50.55
7480;BME280;3781;42.272;22.658;2023-02-19T07:27:30;95115.50;;;11.75;49.47
7480;BME280;3781;42.272;22.658;2023-02-19T07:29:56;95122.44;;;12.65;48.50
7480;BME280;3781;42.272;22.658;2023-02-19T07:32:23;95124.88;;;13.07;47.25
7480;BME280;3781;42.272;22.658;2023-02-19T07:34:50;95120.84;;;13.70;45.20
7480;BME280;3781;42.272;22.658;2023-02-19T07:37:17;95113.28;;;14.13;44.15
7480;BME280;3781;42.272;22.658;2023-02-19T07:39:43;95106.28;;;14.95;43.01
7480;BME280;3781;42.272;22.658;2023-02-19T07:42:10;95103.53;;;14.52;43.70
7480;BME280;3781;42.272;22.658;2023-02-19T07:44:38;95108.47;;;15.35;41.91
7480;BME280;3781;42.272;22.658;2023-02-19T07:47:05;95105.09;;;14.62;42.73
7480;BME280;3781;42.272;22.658;2023-02-19T07:49:31;95111.59;;;14.85;42.06
7480;BME280;3781;42.272;22.658;2023-02-19T07:51:59;95094.16;;;14.76;41.78
7480;BME280;3781;42.272;22.658;2023-02-19T07:54:25;95094.16;;;15.29;40.62
7480;BME280;3781;42.272;22.658;2023-02-19T07:56:52;95111.94;;;14.90;41.30
7480;BME280;3781;42.272;22.658;2023-02-19T07:59:19;95109.56;;;14.52;42.33
7480;BME280;3781;42.272;22.658;2023-02-19T08:01:47;95103.50;;;16.18;39.28
7480;BME280;3781;42.272;22.658;2023-02-19T08:04:31;95106.13;;;16.94;37.94
7480;BME280;3781;42.272;22.658;2023-02-19T08:06:58;95106.22;;;17.58;37.71
7480;BME280;3781;42.272;22.658;2023-02-19T08:09:25;95100.75;;;18.71;35.16
7480;BME280;3781;42.272;22.658;2023-02-19T08:11:51;95097.47;;;19.30;34.56
7480;BME280;3781;42.272;22.658;2023-02-19T08:14:37;95096.56;;;19.46;34.17
7480;BME280;3781;42.272;22.658;2023-02-19T08:17:05;95103.88;;;19.96;32.67
7480;BME280;3781;42.272;22.658;2023-02-19T08:19:32;95080.47;;;19.33;33.40
7480;BME280;3781;42.272;22.658;2023-02-19T08:21:58;95093.50;;;19.34;33.27
7480;BME280;3781;42.272;22.658;2023-02-19T08:24:25;95072.03;;;19.83;32.56
7480;BME280;3781;42.272;22.658;2023-02-19T08:26:52;95070.72;;;18.88;33.64
7480;BME280;3781;42.272;22.658;2023-02-19T08:29:19;95080.22;;;18.03;35.62
7480;BME280;3781;42.272;22.658;2023-02-19T08:31:45;95079.09;;;17.98;35.55
7480;BME280;3781;42.272;22.658;2023-02-19T08:34:13;95080.66;;;18.78;34.76
7480;BME280;3781;42.272;22.658;2023-02-19T08:36:40;95061.78;;;19.50;33.58
7480;BME280;3781;42.272;22.658;2023-02-19T08:39:08;95071.22;;;19.60;33.36
7480;BME280;3781;42.272;22.658;2023-02-19T08:41:35;95071.53;;;20.60;32.18
7480;BME280;3781;42.272;22.658;2023-02-19T08:44:01;95056.25;;;20.70;31.82
7480;BME280;3781;42.272;22.658;2023-02-19T08:46:28;95069.00;;;21.17;30.50
7480;BME280;3781;42.272;22.658;2023-02-19T08:48:55;95069.00;;;21.38;30.48
7480;BME280;3781;42.272;22.658;2023-02-19T08:51:23;95068.16;;;21.80;30.04
7480;BME280;3781;42.272;22.658;2023-02-19T08:53:49;95056.53;;;22.64;29.06
7480;BME280;3781;42.272;22.658;2023-02-19T08:56:16;95047.84;;;22.08;29.23
7480;BME280;3781;42.272;22.658;2023-02-19T08:58:43;95057.91;;;21.92;29.79
7480;BME280;3781;42.272;22.658;2023-02-19T09:01:12;95043.00;;;22.12;29.56
7480;BME280;3781;42.272;22.658;2023-02-19T09:03:40;95031.28;;;21.72;29.84
7480;BME280;3781;42.272;22.658;2023-02-19T09:06:09;95027.66;;;22.01;29.29
7480;BME280;3781;42.272;22.658;2023-02-19T09:08:39;95041.75;;;22.83;28.55
7480;BME280;3781;42.272;22.658;2023-02-19T09:11:06;95032.78;;;22.43;28.46
7480;BME280;3781;42.272;22.658;2023-02-19T09:13:33;95038.44;;;21.50;29.26
7480;BME280;3781;42.272;22.658;2023-02-19T09:16:02;95039.06;;;22.35;28.42
7480;BME280;3781;42.272;22.658;2023-02-19T09:18:28;95044.81;;;22.45;28.50
7480;BME280;3781;42.272;22.658;2023-02-19T09:20:58;95012.06;;;22.94;28.12
7480;BME280;3781;42.272;22.658;2023-02-19T09:23:25;95031.69;;;23.32;27.98
7480;BME280;3781;42.272;22.658;2023-02-19T09:25:57;95027.88;;;23.87;26.85
7480;BME280;3781;42.272;22.658;2023-02-19T09:28:25;95013.38;;;24.03;26.73
7480;BME280;3781;42.272;22.658;2023-02-19T09:30:51;95010.59;;;24.68;26.17
7480;BME280;3781;42.272;22.658;2023-02-19T09:33:18;95009.09;;;23.56;27.54
7480;BME280;3781;42.272;22.658;2023-02-19T09:35:45;95006.25;;;24.16;27.04
7480;BME280;3781;42.272;22.658;2023-02-19T09:38:11;95004.69;;;24.59;26.43
7480;BME280;3781;42.272;22.658;2023-02-19T09:40:38;94999.91;;;24.24;27.01
7480;BME280;3781;42.272;22.658;2023-02-19T09:43:07;94981.59;;;24.60;26.01
7480;BME280;3781;42.272;22.658;2023-02-19T09:45:35;94992.38;;;24.71;26.18
7480;BME280;3781;42.272;22.658;2023-02-19T09:48:04;94994.94;;;24.34;26.59
7480;BME280;3781;42.272;22.658;2023-02-19T09:50:35;94981.94;;;23.99;26.35
7480;BME280;3781;42.272;22.658;2023-02-19T09:53:09;94989.28;;;24.04;26.88
7480;BME280;3781;42.272;22.658;2023-02-19T09:55:38;94972.16;;;24.07;27.14
7480;BME280;3781;42.272;22.658;2023-02-19T09:58:20;94964.41;;;24.12;26.35
7480;BME280;3781;42.272;22.658;2023-02-19T10:00:49;94962.13;;;24.79;25.78
7480;BME280;3781;42.272;22.658;2023-02-19T10:03:21;94961.47;;;25.77;24.81
7480;BME280;3781;42.272;22.658;2023-02-19T10:05:50;94953.56;;;25.89;24.71
7480;BME280;3781;42.272;22.658;2023-02-19T10:08:19;94955.09;;;26.75;23.90
7480;BME280;3781;42.272;22.658;2023-02-19T10:10:46;94944.19;;;26.04;24.21
7480;BME280;3781;42.272;22.658;2023-02-19T10:13:18;94938.59;;;25.70;24.47
7480;BME280;3781;42.272;22.658;2023-02-19T10:15:47;94933.41;;;25.57;25.09
7480;BME280;3781;42.272;22.658;2023-02-19T10:18:17;94939.66;;;25.87;25.04
7480;BME280;3781;42.272;22.658;2023-02-19T10:20:45;94918.25;;;26.36;24.25
7480;BME280;3781;42.272;22.658;2023-02-19T10:23:13;94937.16;;;25.92;24.92
7480;BME280;3781;42.272;22.658;2023-02-19T10:25:44;94929.03;;;26.59;24.39
7480;BME280;3781;42.272;22.658;2023-02-19T10:28:14;94917.53;;;27.07;24.21
7480;BME280;3781;42.272;22.658;2023-02-19T10:30:44;94905.97;;;28.00;22.92
7480;BME280;3781;42.272;22.658;2023-02-19T10:33:15;94907.34;;;27.91;23.00
7480;BME280;3781;42.272;22.658;2023-02-19T10:35:52;94895.19;;;27.08;23.73
7480;BME280;3781;42.272;22.658;2023-02-19T10:38:20;94896.22;;;27.94;22.86
7480;BME280;3781;42.272;22.658;2023-02-19T10:40:53;94892.97;;;27.92;22.35
7480;BME280;3781;42.272;22.658;2023-02-19T10:43:25;94891.56;;;27.78;22.82
7480;BME280;3781;42.272;22.658;2023-02-19T10:46:01;94872.06;;;27.43;22.58
7480;BME280;3781;42.272;22.658;2023-02-19T10:48:31;94873.78;;;28.86;21.86
7480;BME280;3781;42.272;22.658;2023-02-19T10:51:01;94875.75;;;28.91;21.62
7480;BME280;3781;42.272;22.658;2023-02-19T10:53:42;94854.44;;;27.42;22.25
7480;BME280;3781;42.272;22.658;2023-02-19T10:56:12;94868.59;;;27.77;22.28
7480;BME280;3781;42.272;22.658;2023-02-19T10:58:40;94851.00;;;26.70;23.14
7480;BME280;3781;42.272;22.658;2023-02-19T11:01:16;94826.78;;;27.13;22.86
7480;BME280;3781;42.272;22.658;2023-02-19T11:03:44;94832.13;;;27.71;22.70
7480;BME280;3781;42.272;22.658;2023-02-19T11:06:13;94818.00;;;28.33;21.77
7480;BME280;3781;42.272;22.658;2023-02-19T11:08:47;94822.44;;;27.42;22.61
7480;BME280;3781;42.272;22.658;2023-02-19T11:11:23;94817.31;;;27.63;22.46
7480;BME280;3781;42.272;22.658;2023-02-19T11:13:52;94811.66;;;28.11;22.19
7480;BME280;3781;42.272;22.658;2023-02-19T11:16:21;94780.19;;;28.42;21.94
7480;BME280;3781;42.272;22.658;2023-02-19T11:18:53;94780.66;;;27.59;22.20
7480;BME280;3781;42.272;22.658;2023-02-19T11:21:26;94789.69;;;27.12;23.00
7480;BME280;3781;42.272;22.658;2023-02-19T11:23:58;94775.88;;;27.26;23.00
7480;BME280;3781;42.272;22.658;2023-02-19T11:26:26;94785.00;;;27.88;22.75
7480;BME280;3781;42.272;22.658;2023-02-19T11:28:58;94782.88;;;28.13;22.28
7480;BME280;3781;42.272;22.658;2023-02-19T11:31:27;94771.13;;;29.37;21.24
7480;BME280;3781;42.272;22.658;2023-02-19T11:33:57;94759.66;;;29.20;21.42
7480;BME280;3781;42.272;22.658;2023-02-19T11:36:30;94762.88;;;29.22;21.19
7480;BME280;3781;42.272;22.658;2023-02-19T11:39:00;94761.97;;;28.83;21.41
7480;BME280;3781;42.272;22.658;2023-02-19T11:41:49;94731.94;;;27.92;22.22
7480;BME280;3781;42.272;22.658;2023-02-19T11:44:27;94750.16;;;27.20;22.85
7480;BME280;3781;42.272;22.658;2023-02-19T11:47:20;94728.34;;;27.86;22.19
7480;BME280;3781;42.272;22.658;2023-02-19T11:49:57;94745.31;;;26.64;23.13
7480;BME280;3781;42.272;22.658;2023-02-19T11:52:32;94737.03;;;27.30;22.91
7480;BME280;3781;42.272;22.658;2023-02-19T11:55:09;94726.97;;;28.85;21.46
7480;BME280;3781;42.272;22.658;2023-02-19T11:57:41;94733.63;;;28.66;21.68
7480;BME280;3781;42.272;22.658;2023-02-19T12:00:22;94710.28;;;28.16;21.93
7480;BME280;3781;42.272;22.658;2023-02-19T12:06:09;94711.41;;;27.92;21.58
7480;BME280;3781;42.272;22.658;2023-02-19T12:08:59;94715.88;;;28.60;21.10
7480;BME280;3781;42.272;22.658;2023-02-19T12:11:40;94712.34;;;30.56;19.69
7480;BME280;3781;42.272;22.658;2023-02-19T12:14:35;94687.44;;;29.63;20.18
7480;BME280;3781;42.272;22.658;2023-02-19T12:17:11;94698.75;;;30.67;19.32
7480;BME280;3781;42.272;22.658;2023-02-19T12:19:55;94698.28;;;30.75;19.56
7480;BME280;3781;42.272;22.658;2023-02-19T12:22:28;94688.56;;;29.67;19.81
7480;BME280;3781;42.272;22.658;2023-02-19T12:28:12;94660.53;;;28.60;20.18
7480;BME280;3781;42.272;22.658;2023-02-19T12:34:08;94647.97;;;29.75;19.40
7480;BME280;3781;42.272;22.658;2023-02-19T12:36:47;94645.72;;;29.67;20.60
7480;BME280;3781;42.272;22.658;2023-02-19T12:39:26;94649.28;;;29.95;19.37
7480;BME280;3781;42.272;22.658;2023-02-19T12:42:02;94642.06;;;29.52;19.74
7480;BME280;3781;42.272;22.658;2023-02-19T12:44:39;94635.84;;;29.08;20.31
7480;BME280;3781;42.272;22.658;2023-02-19T12:47:14;94633.97;;;28.37;20.67
7480;BME280;3781;42.272;22.658;2023-02-19T12:49:48;94630.09;;;28.45;20.48
7480;BME280;3781;42.272;22.658;2023-02-19T12:52:19;94622.91;;;28.62;20.72
7480;BME280;3781;42.272;22.658;2023-02-19T12:54:50;94621.97;;;27.78;21.06
7480;BME280;3781;42.272;22.658;2023-02-19T12:57:21;94621.00;;;28.29;20.70
7480;BME280;3781;42.272;22.658;2023-02-19T12:59:52;94630.66;;;29.61;19.62
7480;BME280;3781;42.272;22.658;2023-02-19T13:02:27;94630.38;;;31.01;18.56
7480;BME280;3781;42.272;22.658;2023-02-19T13:05:01;94619.59;;;30.01;19.20
7480;BME280;3781;42.272;22.658;2023-02-19T13:07:36;94602.81;;;27.02;21.12
7480;BME280;3781;42.272;22.658;2023-02-19T13:10:21;94605.44;;;25.20;23.34
7480;BME280;3781;42.272;22.658;2023-02-19T13:12:51;94589.81;;;24.33;23.79
7480;BME280;3781;42.272;22.658;2023-02-19T13:15:29;94568.81;;;24.07;24.44
7480;BME280;3781;42.272;22.658;2023-02-19T13:17:59;94583.75;;;23.39;25.41
7480;BME280;3781;42.272;22.658;2023-02-19T13:20:30;94581.03;;;22.30;26.07
7480;BME280;3781;42.272;22.658;2023-02-19T13:23:05;94581.88;;;21.92;26.83
7480;BME280;3781;42.272;22.658;2023-02-19T13:26:53;94564.69;;;22.66;26.65
7480;BME280;3781;42.272;22.658;2023-02-19T13:32:48;94492.91;;;22.17;26.52
7480;BME280;3781;42.272;22.658;2023-02-19T13:35:27;94546.91;;;21.83;27.37
7480;BME280;3781;42.272;22.658;2023-02-19T13:38:02;94550.69;;;21.35;28.08
7480;BME280;3781;42.272;22.658;2023-02-19T13:40:33;94535.78;;;21.08;28.15
7480;BME280;3781;42.272;22.658;2023-02-19T13:43:02;94548.00;;;21.15;28.39